Time;durP1;ratioP1;P1;durP2;ratioP2;P2;SDS_P1;SDS_P2;PMS_P1;PMS_P2;Temp;Humidity;BMP_temperature;BMP_pressure;BME280_temperature;BME280_humidity;BME280_pressure;Samples;Min_cycle;Max_cycle;Signal;HPM_P1;HPM_P2
2022/01/24 00:01:49;;;;;;;;;38.25;32.75;;;;;7.65;58.42;102805.91;4923874;28;45202;-73
2022/01/24 00:04:14;;;;;;;;;43.25;33.00;;;;;7.69;57.91;102804.19;4905566;28;47595;-73
2022/01/24 00:06:40;;;;;;;;;27.25;26.75;;;;;7.82;58.16;102831.78;4923653;28;45313;-73
2022/01/24 00:09:07;;;;;;;;;29.50;21.50;;;;;7.71;58.00;102815.72;4921569;28;45269;-73
2022/01/24 00:11:46;;;;;;;;;37.75;32.00;;;;;7.69;57.82;102814.81;4923438;28;45413;-73
2022/01/24 00:27:18;;;;;;;;;37.25;32.25;;;;;7.47;57.83;102802.97;4910712;28;45486;-73
2022/01/24 00:29:43;;;;;;;;;39.00;32.50;;;;;7.52;58.20;102807.50;4923434;28;45218;-73
2022/01/24 00:32:08;;;;;;;;;30.50;28.75;;;;;7.47;58.28;102806.56;4923513;28;45202;-73
2022/01/24 00:34:34;;;;;;;;;38.50;34.00;;;;;7.43;58.21;102791.44;4921923;28;46459;-74
2022/01/24 00:37:00;;;;;;;;;45.00;37.75;;;;;7.54;58.17;102810.19;4922532;28;45430;-73
2022/01/24 00:39:26;;;;;;;;;37.00;32.50;;;;;7.49;58.22;102799.50;4921606;28;45454;-73
2022/01/24 00:46:53;;;;;;;;;37.00;29.50;;;;;7.44;58.28;102803.84;4922919;28;45302;-73
2022/01/24 00:54:43;;;;;;;;;35.75;29.75;;;;;7.31;58.19;102788.59;4922753;28;45454;-73
2022/01/24 00:57:08;;;;;;;;;35.75;28.75;;;;;7.33;58.34;102795.72;4920500;28;45320;-73
2022/01/24 00:59:34;;;;;;;;;34.50;33.00;;;;;7.34;58.28;102788.66;4920032;28;48162;-73
2022/01/24 01:01:59;;;;;;;;;37.00;35.50;;;;;7.23;58.24;102768.16;4922720;28;45510;-73
2022/01/24 01:04:32;;;;;;;;;41.75;37.00;;;;;7.31;58.24;102792.16;4922437;28;45269;-73
2022/01/24 01:07:04;;;;;;;;;38.50;35.00;;;;;7.24;58.56;102784.97;4922926;28;45415;-73
2022/01/24 01:18:18;;;;;;;;;35.00;29.00;;;;;7.17;58.89;102768.06;4839434;29;45301;-73
2022/01/24 01:21:08;;;;;;;;;39.25;36.00;;;;;7.21;58.70;102784.94;4916696;28;45346;-73
2022/01/24 01:23:33;;;;;;;;;35.25;33.75;;;;;7.20;59.13;102791.09;4921622;28;45328;-73
2022/01/24 01:26:04;;;;;;;;;37.00;32.25;;;;;7.16;58.45;102795.47;4905312;28;46107;-73
2022/01/24 01:28:30;;;;;;;;;38.25;34.00;;;;;7.07;58.84;102783.81;4905230;28;45750;-73
2022/01/24 01:31:00;;;;;;;;;37.50;33.50;;;;;7.05;59.13;102790.03;4922746;28;45384;-73
2022/01/24 01:33:45;;;;;;;;;32.00;27.50;;;;;7.05;58.65;102782.06;4920533;28;45217;-73
2022/01/24 01:52:39;;;;;;;;;30.50;26.50;;;;;6.91;58.91;102788.03;4825637;29;45355;-73
2022/01/24 01:55:16;;;;;;;;;34.50;30.50;;;;;6.94;59.52;102785.41;4884765;28;45494;-73
2022/01/24 01:57:42;;;;;;;;;34.75;32.00;;;;;6.96;59.46;102779.25;4920370;28;45237;-73
2022/01/24 02:00:09;;;;;;;;;39.75;32.75;;;;;6.99;59.07;102781.06;4922043;28;45311;-73
2022/01/24 02:02:34;;;;;;;;;35.50;30.00;;;;;6.91;59.62;102775.63;4921717;28;45335;-73
2022/01/24 02:05:00;;;;;;;;;34.25;27.00;;;;;6.88;58.87;102762.31;4922148;28;45321;-73
2022/01/24 02:07:25;;;;;;;;;29.75;28.50;;;;;6.98;59.33;102780.19;4921724;28;46035;-73
2022/01/24 02:09:51;;;;;;;;;33.75;32.00;;;;;6.92;58.78;102764.16;4922067;28;45327;-73
2022/01/24 02:12:21;;;;;;;;;34.00;29.00;;;;;7.04;59.41;102788.22;4921877;28;45371;-73
2022/01/24 02:14:53;;;;;;;;;35.00;33.25;;;;;6.95;58.84;102765.94;4915725;28;45515;-73
2022/01/24 02:17:28;;;;;;;;;29.25;28.25;;;;;7.03;59.20;102786.47;4919434;28;46193;-73
2022/01/24 02:20:11;;;;;;;;;33.00;29.25;;;;;7.01;59.18;102797.91;4904568;28;45776;-73
2022/01/24 02:22:47;;;;;;;;;33.50;29.50;;;;;6.95;58.89;102788.09;4912441;28;45469;-73
2022/01/24 02:25:32;;;;;;;;;36.25;33.25;;;;;6.96;59.44;102789.88;4921593;28;45393;-73
2022/01/24 02:28:01;;;;;;;;;37.00;32.00;;;;;6.89;59.56;102771.19;4911826;28;48490;-73
2022/01/24 02:33:05;;;;;;;;;33.75;29.50;;;;;6.90;59.07;102765.91;4917618;28;45335;-73
2022/01/24 02:35:30;;;;;;;;;34.50;32.75;;;;;6.90;59.07;102752.63;4921444;28;45468;-73
2022/01/24 02:38:00;;;;;;;;;46.25;36.50;;;;;6.98;59.61;102768.66;4921578;28;45312;-73
2022/01/24 02:40:26;;;;;;;;;40.00;34.75;;;;;6.89;58.96;102755.25;4921061;28;45323;-73
2022/01/24 02:53:17;;;;;;;;;33.25;29.75;;;;;6.96;59.45;102758.00;4921184;28;45438;-73
2022/01/24 02:55:43;;;;;;;;;38.25;31.75;;;;;6.93;59.27;102744.69;4921316;28;45467;-73
2022/01/24 02:58:09;;;;;;;;;45.25;34.00;;;;;6.99;59.14;102752.75;4921295;28;45447;-73
2022/01/24 03:00:35;;;;;;;;;38.75;33.75;;;;;6.98;59.17;102743.00;4911870;28;45371;-73
2022/01/24 03:03:00;;;;;;;;;41.00;36.00;;;;;7.01;58.99;102742.16;4901484;28;45334;-73
2022/01/24 03:05:26;;;;;;;;;37.00;29.25;;;;;7.05;59.38;102742.22;4924541;28;45501;-73
2022/01/24 03:07:51;;;;;;;;;33.25;31.25;;;;;7.03;59.08;102737.75;4924331;28;45986;-73
2022/01/24 03:10:26;;;;;;;;;41.25;33.50;;;;;6.97;58.77;102743.88;4924279;28;45237;-72
2022/01/24 03:13:10;;;;;;;;;35.00;28.00;;;;;6.91;58.79;102730.50;4924780;28;45248;-73
2022/01/24 03:15:38;;;;;;;;;35.25;33.25;;;;;7.00;59.17;102743.91;4922720;28;45410;-73
2022/01/24 03:18:04;;;;;;;;;35.25;30.25;;;;;6.99;59.13;102736.81;4907157;28;48622;-73
2022/01/24 03:20:29;;;;;;;;;32.25;29.50;;;;;7.02;59.06;102742.16;4924105;28;45490;-73
2022/01/24 03:22:55;;;;;;;;;38.50;33.75;;;;;7.02;58.85;102733.31;4914749;28;45273;-73
2022/01/24 03:25:20;;;;;;;;;42.75;35.25;;;;;7.03;58.61;102741.31;4923667;28;45627;-73
2022/01/24 03:27:45;;;;;;;;;39.25;34.50;;;;;7.03;58.99;102735.09;4924220;28;46286;-73
2022/01/24 03:30:11;;;;;;;;;49.25;40.25;;;;;6.92;59.21;102721.66;4924135;28;45376;-73
2022/01/24 03:32:37;;;;;;;;;37.50;33.25;;;;;6.99;59.07;102735.94;4922472;28;45335;-73
2022/01/24 03:35:07;;;;;;;;;40.25;31.00;;;;;6.93;59.06;102723.44;4923607;28;45457;-73
2022/01/24 03:37:33;;;;;;;;;46.25;37.25;;;;;6.97;58.94;102732.38;4923661;28;45338;-73
2022/01/24 03:39:59;;;;;;;;;42.25;34.75;;;;;6.93;58.76;102722.56;4917967;28;45316;-73
2022/01/24 03:42:24;;;;;;;;;45.75;36.75;;;;;6.94;59.07;102733.19;4897587;28;45398;-73
2022/01/24 03:44:56;;;;;;;;;36.50;31.75;;;;;6.86;58.75;102718.91;4923571;28;45205;-73
2022/01/24 03:50:00;;;;;;;;;35.25;30.00;;;;;6.86;59.57;102722.44;4919235;28;45489;-73
2022/01/24 03:52:26;;;;;;;;;32.25;29.50;;;;;6.83;58.83;102714.47;4923852;28;45569;-73
2022/01/24 03:54:51;;;;;;;;;39.75;33.50;;;;;6.84;59.38;102718.00;4894126;28;45538;-73
2022/01/24 03:57:20;;;;;;;;;41.25;37.00;;;;;6.79;59.06;102717.94;4923428;28;46010;-73
2022/01/24 03:59:45;;;;;;;;;37.25;32.50;;;;;6.82;58.72;102717.09;4923833;28;45798;-73
2022/01/24 04:02:13;;;;;;;;;31.50;27.50;;;;;6.80;59.16;102714.41;4923067;28;45205;-73
2022/01/24 04:04:39;;;;;;;;;31.25;29.25;;;;;6.80;58.85;102718.81;4923963;28;45173;-73
2022/01/24 04:07:05;;;;;;;;;39.25;33.00;;;;;6.79;59.45;102719.72;4921883;28;46411;-73
2022/01/24 04:09:30;;;;;;;;;38.50;35.50;;;;;6.73;59.33;102703.69;4906187;28;45636;-73
2022/01/24 04:11:58;;;;;;;;;37.00;31.50;;;;;6.75;59.01;102710.81;4922251;28;45375;-73
2022/01/24 04:22:08;;;;;;;;;40.25;35.25;;;;;6.64;59.57;102700.00;4894126;28;45584;-73
2022/01/24 04:24:34;;;;;;;;;29.75;28.50;;;;;6.62;59.03;102698.22;4922090;28;45607;-73
2022/01/24 04:26:59;;;;;;;;;43.50;37.00;;;;;6.73;59.06;102707.22;4923127;28;45297;-73
2022/01/24 04:29:24;;;;;;;;;35.75;31.50;;;;;6.74;58.97;102706.34;4923385;28;45293;-73
2022/01/24 04:31:50;;;;;;;;;34.00;31.50;;;;;6.62;59.06;102684.97;4922981;28;45228;-73
2022/01/24 04:34:15;;;;;;;;;33.25;29.50;;;;;6.71;58.85;102708.06;4923392;28;45499;-73
2022/01/24 04:36:40;;;;;;;;;36.50;31.25;;;;;6.62;59.70;102704.41;4923052;28;46232;-73
2022/01/24 04:39:06;;;;;;;;;34.75;31.50;;;;;6.71;59.37;102721.34;4912438;28;45230;-73
2022/01/24 04:41:36;;;;;;;;;34.75;31.00;;;;;6.70;59.00;102715.16;4915046;28;45218;-73
2022/01/24 04:47:16;;;;;;;;;38.75;33.00;;;;;6.56;59.17;102690.16;4903317;28;45878;-73
2022/01/24 04:54:58;;;;;;;;;35.00;31.75;;;;;6.63;59.57;102707.94;4922210;28;45275;-72
2022/01/24 04:57:26;;;;;;;;;35.75;33.50;;;;;6.70;59.52;102715.16;4922459;28;45316;-72
2022/01/24 04:59:53;;;;;;;;;35.75;31.75;;;;;6.67;58.90;102704.50;4921970;28;45466;-72
2022/01/24 05:02:20;;;;;;;;;36.75;34.50;;;;;6.69;59.46;102705.41;4922793;28;45327;-73
2022/01/24 05:04:45;;;;;;;;;34.50;32.75;;;;;6.68;58.69;102703.59;4910996;28;45432;-72
2022/01/24 05:07:11;;;;;;;;;40.50;35.25;;;;;6.68;59.65;102708.91;4922601;28;45307;-72
2022/01/24 05:09:44;;;;;;;;;46.75;34.75;;;;;6.62;58.75;102700.88;4921281;28;45293;-72
2022/01/24 05:25:34;;;;;;;;;28.75;24.75;;;;;6.54;58.93;102719.31;4922633;28;45550;-73
2022/01/24 05:27:59;;;;;;;;;34.50;30.50;;;;;6.54;58.97;102721.09;4915765;28;45329;-72
2022/01/24 05:30:25;;;;;;;;;34.75;29.25;;;;;6.51;58.87;102716.63;4921955;28;45461;-72
2022/01/24 05:32:50;;;;;;;;;35.75;31.75;;;;;6.34;59.60;102689.81;4922698;28;45590;-72
2022/01/24 05:35:16;;;;;;;;;31.75;28.25;;;;;6.45;58.99;102705.94;4922432;28;45449;-72
2022/01/24 05:37:41;;;;;;;;;38.50;32.25;;;;;6.38;58.77;102689.00;4922053;28;46238;-73
2022/01/24 05:40:07;;;;;;;;;37.50;35.00;;;;;6.35;59.77;102693.34;4922313;28;45385;-73
2022/01/24 05:42:33;;;;;;;;;40.50;37.25;;;;;6.40;59.59;102712.88;4920808;28;45327;-72
2022/01/24 05:44:59;;;;;;;;;37.25;32.50;;;;;6.41;59.12;102709.38;4921978;28;45401;-72
2022/01/24 05:47:24;;;;;;;;;37.75;31.00;;;;;6.31;60.01;102689.75;4922041;28;46888;-72
2022/01/24 05:49:50;;;;;;;;;40.00;35.50;;;;;6.33;59.18;102698.63;4917187;28;45429;-72
2022/01/24 05:52:15;;;;;;;;;36.00;32.00;;;;;6.32;59.36;102695.97;4922103;28;46306;-72
2022/01/24 05:54:41;;;;;;;;;40.00;34.75;;;;;6.30;60.07;102703.91;4922196;28;45416;-72
2022/01/24 05:57:08;;;;;;;;;36.50;31.75;;;;;6.21;59.42;102693.13;4910870;28;46164;-72
2022/01/24 05:59:34;;;;;;;;;40.00;37.25;;;;;6.26;59.87;102707.34;4918079;28;45990;-72
2022/01/24 06:01:59;;;;;;;;;34.25;33.00;;;;;6.23;59.72;102702.00;4921468;28;45491;-72
2022/01/24 06:04:25;;;;;;;;;39.00;32.00;;;;;6.25;59.52;102706.47;4922020;28;45363;-72
2022/01/24 06:06:50;;;;;;;;;42.50;38.75;;;;;6.24;59.48;102707.31;4921983;28;45341;-72
2022/01/24 06:09:16;;;;;;;;;34.50;30.00;;;;;6.20;60.08;102702.84;4921614;28;45333;-72
2022/01/24 06:11:43;;;;;;;;;38.00;35.00;;;;;6.20;59.84;102702.84;4922069;28;45632;-72
2022/01/24 06:14:08;;;;;;;;;39.25;34.50;;;;;6.18;59.60;102701.03;4919962;28;45533;-72
2022/01/24 06:16:34;;;;;;;;;39.75;31.25;;;;;6.17;59.59;102701.91;4913685;28;45257;-72
2022/01/24 06:18:59;;;;;;;;;34.50;30.00;;;;;6.10;59.42;102690.31;4921755;28;45317;-72
2022/01/24 06:21:24;;;;;;;;;38.00;30.50;;;;;6.17;59.58;102705.44;4921853;28;45377;-72
2022/01/24 06:23:50;;;;;;;;;40.50;34.25;;;;;6.15;59.73;102714.22;4909303;28;45490;-72
2022/01/24 06:26:15;;;;;;;;;35.50;33.00;;;;;6.00;60.05;102697.19;4921467;28;46187;-72
2022/01/24 06:28:41;;;;;;;;;29.75;23.25;;;;;6.05;60.13;102707.91;4921512;28;45379;-72
2022/01/24 06:31:06;;;;;;;;;42.00;35.25;;;;;6.03;59.76;102715.81;4912840;28;46477;-73
2022/01/24 06:33:32;;;;;;;;;31.75;29.25;;;;;6.02;60.00;102716.66;4918297;28;45356;-73
2022/01/24 06:35:58;;;;;;;;;37.75;37.00;;;;;5.96;59.74;102726.25;4919857;28;45311;-73
2022/01/24 06:38:24;;;;;;;;;37.50;34.00;;;;;5.89;60.03;102725.22;4924415;28;45265;-74
2022/01/24 06:40:49;;;;;;;;;33.25;28.25;;;;;5.84;59.75;102719.84;4908669;28;45482;-73
2022/01/24 06:43:15;;;;;;;;;36.00;32.00;;;;;5.81;60.22;102722.41;4923918;28;45388;-73
2022/01/24 06:45:40;;;;;;;;;39.25;35.50;;;;;5.75;60.77;102715.25;4924244;28;45599;-73
2022/01/24 06:48:05;;;;;;;;;40.00;32.75;;;;;5.79;59.80;102728.56;4924073;28;45540;-73
2022/01/24 06:50:31;;;;;;;;;29.00;26.25;;;;;5.76;60.12;102718.78;4919798;28;45590;-73
2022/01/24 06:52:57;;;;;;;;;42.75;37.25;;;;;5.71;60.82;102729.31;4923828;28;45319;-73
2022/01/24 06:55:23;;;;;;;;;47.75;38.25;;;;;5.57;60.12;102707.84;4923878;28;45438;-72
2022/01/24 06:57:49;;;;;;;;;32.50;27.75;;;;;5.66;60.05;102730.09;4923552;28;45225;-73
2022/01/24 07:00:14;;;;;;;;;28.75;26.50;;;;;5.66;60.51;102724.78;4921155;28;45482;-72
2022/01/24 07:02:40;;;;;;;;;39.50;36.25;;;;;5.66;60.70;102727.44;4922897;28;45398;-72
2022/01/24 07:05:06;;;;;;;;;28.00;22.75;;;;;5.55;60.45;102711.34;4923888;28;46234;-73
2022/01/24 07:07:33;;;;;;;;;36.25;30.25;;;;;5.57;60.74;102725.50;4903566;28;45506;-76
2022/01/24 07:09:58;;;;;;;;;31.50;28.50;;;;;5.57;60.40;102725.50;4905990;28;46789;-76
2022/01/24 07:12:24;;;;;;;;;37.00;29.75;;;;;5.56;60.82;102713.09;4924084;28;45403;-76
2022/01/24 07:14:50;;;;;;;;;40.75;35.75;;;;;5.56;60.71;102719.31;4924234;28;45429;-75
2022/01/24 07:17:30;;;;;;;;;39.50;34.00;;;;;5.61;60.98;102740.56;4918460;28;45304;-75
2022/01/24 07:19:56;;;;;;;;;43.00;38.00;;;;;5.55;60.46;102735.19;4914388;28;45324;-75
2022/01/24 07:22:21;;;;;;;;;31.50;30.25;;;;;5.55;60.78;102725.47;4923973;28;45409;-74
2022/01/24 07:24:46;;;;;;;;;42.00;38.00;;;;;5.57;60.61;102736.09;4916413;28;45493;-75
2022/01/24 07:27:12;;;;;;;;;42.50;33.50;;;;;5.64;60.16;102731.81;4922455;28;45470;-75
2022/01/24 07:29:37;;;;;;;;;39.50;36.00;;;;;5.71;60.37;102739.94;4924095;28;45447;-77
2022/01/24 07:32:03;;;;;;;;;32.75;30.75;;;;;5.72;61.42;102739.03;4922127;28;45382;-75
2022/01/24 07:34:28;;;;;;;;;36.25;30.50;;;;;5.60;60.29;102703.44;4913884;28;45450;-75
2022/01/24 07:36:55;;;;;;;;;40.50;32.50;;;;;5.69;61.07;102733.69;4912744;28;45429;-77
2022/01/24 07:39:21;;;;;;;;;41.25;33.50;;;;;5.69;61.27;102735.44;4924160;28;45379;-77
2022/01/24 07:41:47;;;;;;;;;34.50;32.00;;;;;5.65;60.67;102733.63;4923704;28;45308;-76
2022/01/24 07:44:14;;;;;;;;;38.25;30.00;;;;;5.71;60.85;102736.38;4923778;28;46212;-75
2022/01/24 07:46:40;;;;;;;;;43.25;37.50;;;;;5.66;60.79;102725.66;4923617;28;45298;-76
2022/01/24 07:49:08;;;;;;;;;39.25;31.25;;;;;5.73;60.80;102739.94;4920599;28;46713;-74
2022/01/24 07:51:35;;;;;;;;;40.75;33.50;;;;;5.74;61.00;102739.06;4922680;28;45481;-76
2022/01/24 07:54:00;;;;;;;;;42.25;36.25;;;;;5.78;60.38;102737.38;4925219;28;46151;-77
2022/01/24 07:56:26;;;;;;;;;43.75;33.00;;;;;5.75;61.16;102731.16;4927020;28;45250;-77
2022/01/24 07:58:51;;;;;;;;;35.50;33.75;;;;;5.80;60.36;102741.84;4906523;28;45408;-77
2022/01/24 08:01:18;;;;;;;;;37.00;30.75;;;;;5.79;60.28;102740.06;4923964;28;45226;-77
2022/01/24 08:03:44;;;;;;;;;36.50;34.00;;;;;5.77;60.36;102736.50;4923625;28;45300;-71
2022/01/24 08:06:10;;;;;;;;;41.50;34.50;;;;;5.81;60.32;102750.69;4905461;28;46188;-70
2022/01/24 08:08:35;;;;;;;;;40.50;36.50;;;;;5.75;60.33;102759.44;4923253;28;45404;-73
2022/01/24 08:11:00;;;;;;;;;45.25;34.00;;;;;5.68;60.67;102746.91;4916879;28;45443;-77
2022/01/24 08:13:26;;;;;;;;;39.50;33.25;;;;;5.70;60.25;102764.63;4900015;28;47214;-76
2022/01/24 08:15:51;;;;;;;;;38.75;33.00;;;;;5.60;61.00;102743.19;4919047;28;45533;-74
2022/01/24 08:18:17;;;;;;;;;31.50;28.00;;;;;5.69;60.68;102765.47;4923036;28;45673;-74
2022/01/24 08:20:42;;;;;;;;;45.25;36.25;;;;;5.69;59.93;102759.28;4921817;28;45652;-74
2022/01/24 08:23:09;;;;;;;;;45.75;38.25;;;;;5.51;60.46;102730.66;4918995;28;46974;-75
2022/01/24 08:25:34;;;;;;;;;46.75;37.50;;;;;5.71;61.47;102754.91;4922331;28;45317;-74
2022/01/24 08:27:59;;;;;;;;;44.00;39.50;;;;;5.71;61.16;102753.19;4921733;28;45454;-75
2022/01/24 08:30:26;;;;;;;;;41.00;37.75;;;;;5.81;60.99;102759.53;4923262;28;45398;-75
2022/01/24 08:32:51;;;;;;;;;40.25;33.50;;;;;5.84;61.25;102770.19;4922217;28;46307;-74
2022/01/24 08:35:19;;;;;;;;;43.25;37.50;;;;;5.87;61.05;102757.00;4922906;28;45385;-74
2022/01/24 08:37:44;;;;;;;;;39.50;34.50;;;;;5.88;60.70;102761.44;4920524;28;45439;-74
2022/01/24 08:40:20;;;;;;;;;41.75;36.25;;;;;5.92;61.01;102765.06;4921692;28;45300;-74
2022/01/24 08:42:55;;;;;;;;;39.75;38.25;;;;;5.91;60.77;102766.81;4920868;28;47131;-73
2022/01/24 08:48:05;;;;;;;;;45.00;37.50;;;;;5.82;61.17;102755.13;4910703;28;45613;-73
2022/01/24 08:50:30;;;;;;;;;36.75;34.00;;;;;5.92;61.16;102767.69;4921864;28;45427;-74
2022/01/24 08:53:03;;;;;;;;;40.50;36.00;;;;;5.83;60.84;102748.97;4922072;28;45552;-70
2022/01/24 08:55:30;;;;;;;;;36.25;31.50;;;;;5.95;60.76;102770.41;4922071;28;45376;-69
2022/01/24 08:57:56;;;;;;;;;46.00;36.25;;;;;5.98;61.00;102770.50;4922162;28;45370;-72
2022/01/24 09:00:22;;;;;;;;;37.50;34.00;;;;;5.86;61.03;102751.66;4921726;28;45415;-71
2022/01/24 09:02:48;;;;;;;;;44.00;39.75;;;;;6.00;60.38;102774.09;4921672;28;45693;-71
2022/01/24 09:05:14;;;;;;;;;39.50;32.75;;;;;6.00;60.19;102768.78;4922473;28;45418;-68
2022/01/24 09:07:39;;;;;;;;;55.25;39.25;;;;;6.05;60.12;102772.41;4922089;28;45654;-68
2022/01/24 09:10:06;;;;;;;;;37.75;37.00;;;;;6.04;60.23;102775.91;4921508;28;45701;-68
2022/01/24 09:12:32;;;;;;;;;42.25;35.50;;;;;6.07;60.77;102786.59;4921366;28;47031;-68
2022/01/24 09:14:58;;;;;;;;;43.00;38.00;;;;;6.01;60.50;102769.66;4922195;28;45343;-68
2022/01/24 09:17:23;;;;;;;;;37.25;33.75;;;;;5.98;60.70;102761.66;4922296;28;45215;-68
2022/01/24 09:19:48;;;;;;;;;41.25;35.50;;;;;6.06;59.99;102770.63;4921834;28;45349;-68
2022/01/24 09:22:14;;;;;;;;;45.25;39.25;;;;;6.15;60.39;102778.78;4916800;28;45423;-68
2022/01/24 09:24:39;;;;;;;;;39.75;36.75;;;;;6.12;60.70;102781.38;4914827;28;45345;-68
2022/01/24 09:27:05;;;;;;;;;47.75;39.00;;;;;6.20;60.67;102784.16;4922034;28;45305;-68
2022/01/24 09:29:30;;;;;;;;;28.75;28.00;;;;;6.19;59.97;102777.06;4921998;28;45372;-68
2022/01/24 09:31:56;;;;;;;;;42.00;38.00;;;;;6.24;60.02;102781.59;4920135;28;45365;-68
2022/01/24 09:34:22;;;;;;;;;38.00;36.00;;;;;6.22;60.52;102771.84;4896795;28;45765;-68
2022/01/24 09:36:48;;;;;;;;;48.25;38.00;;;;;6.26;60.33;102779.84;4918365;28;45598;-68
2022/01/24 09:39:18;;;;;;;;;45.00;38.00;;;;;6.34;60.29;102787.06;4921635;28;45549;-68
2022/01/24 09:41:44;;;;;;;;;41.50;35.00;;;;;6.26;60.28;102758.63;4920272;28;45418;-67
2022/01/24 09:44:09;;;;;;;;;43.50;38.75;;;;;6.33;60.07;102780.84;4908754;28;45479;-73
2022/01/24 09:46:36;;;;;;;;;43.00;36.75;;;;;6.35;60.78;102772.94;4921796;28;45320;-71
2022/01/24 09:49:02;;;;;;;;;46.25;38.00;;;;;6.34;60.72;102772.03;4921590;28;45433;-73
2022/01/24 09:51:28;;;;;;;;;47.25;39.00;;;;;6.30;60.02;102776.41;4920599;28;46489;-72
2022/01/24 09:53:53;;;;;;;;;36.75;33.50;;;;;6.36;59.74;102782.69;4920811;28;45523;-73
2022/01/24 09:56:19;;;;;;;;;50.75;39.75;;;;;6.30;60.18;102787.00;4921537;28;45784;-70
2022/01/24 09:58:44;;;;;;;;;42.25;39.00;;;;;6.27;59.99;102786.06;4921870;28;45480;-70
2022/01/24 10:01:10;;;;;;;;;44.50;37.75;;;;;6.32;60.79;102796.78;4920508;28;46313;-69
2022/01/24 10:03:37;;;;;;;;;50.75;41.00;;;;;6.30;60.75;102794.97;4920761;28;46029;-71
2022/01/24 10:06:02;;;;;;;;;40.75;37.25;;;;;6.33;60.46;102791.47;4904501;28;45400;-70
2022/01/24 10:08:30;;;;;;;;;42.50;38.25;;;;;6.36;60.60;102785.34;4921896;28;45415;-71
2022/01/24 10:11:04;;;;;;;;;43.75;34.75;;;;;6.45;60.50;102786.41;4924078;28;46168;-71
2022/01/24 10:18:57;;;;;;;;;45.75;38.50;;;;;6.49;59.80;102782.03;4924836;28;45539;-71
2022/01/24 10:21:23;;;;;;;;;33.50;25.50;;;;;6.44;60.41;102778.41;4914453;28;45447;-70
2022/01/24 10:23:48;;;;;;;;;47.75;41.75;;;;;6.46;60.34;102776.66;4895939;29;45344;-69
2022/01/24 10:26:14;;;;;;;;;43.50;38.00;;;;;6.47;59.59;102775.81;4922607;28;45375;-70
2022/01/24 10:28:43;;;;;;;;;47.50;39.00;;;;;6.47;60.29;102774.03;4924754;28;45436;-71
2022/01/24 10:31:25;;;;;;;;;52.50;41.00;;;;;6.48;60.14;102774.94;4923808;28;46345;-71
2022/01/24 10:34:17;;;;;;;;;39.00;35.25;;;;;6.53;59.80;102775.00;4923989;28;45717;-71
2022/01/24 10:36:42;;;;;;;;;44.50;37.75;;;;;6.59;60.03;102778.66;4913855;28;45502;-71
2022/01/24 10:39:27;;;;;;;;;38.50;36.00;;;;;6.62;59.95;102777.84;4924280;28;45364;-70
2022/01/24 10:42:35;;;;;;;;;48.00;35.25;;;;;6.63;59.56;102774.28;4922364;28;45997;-72
2022/01/24 10:45:13;;;;;;;;;44.75;37.50;;;;;6.64;59.63;102770.78;4914388;28;45524;-72
2022/01/24 10:47:45;;;;;;;;;46.75;40.00;;;;;6.67;60.10;102765.53;4924213;28;45787;-70
2022/01/24 10:50:19;;;;;;;;;43.00;39.00;;;;;6.78;60.57;102766.59;4923248;28;45487;-71
2022/01/24 10:52:45;;;;;;;;;51.00;40.00;;;;;6.81;60.27;102758.66;4916745;28;45452;-71
2022/01/24 10:55:27;;;;;;;;;38.75;36.25;;;;;6.87;60.14;102768.50;4923032;28;45454;-71
2022/01/24 10:58:15;;;;;;;;;44.25;39.50;;;;;6.90;60.04;102760.59;4924257;28;45386;-71
2022/01/24 11:00:41;;;;;;;;;47.50;39.75;;;;;6.87;59.61;102747.25;4912765;28;45483;-74
2022/01/24 11:03:13;;;;;;;;;48.25;40.50;;;;;6.98;59.57;102742.09;4906125;28;48178;-70
2022/01/24 11:05:41;;;;;;;;;45.25;39.00;;;;;6.93;59.86;102731.41;4924039;28;45827;-70
2022/01/24 11:08:09;;;;;;;;;38.50;35.00;;;;;7.05;59.47;102747.53;4923709;28;45431;-70
2022/01/24 11:10:38;;;;;;;;;41.50;32.25;;;;;7.13;59.72;102752.03;4923027;28;45476;-71
2022/01/24 11:13:05;;;;;;;;;39.25;37.00;;;;;7.07;58.88;102731.63;4901952;28;47768;-71
2022/01/24 11:15:33;;;;;;;;;38.00;33.00;;;;;7.16;59.49;102747.66;4900399;28;45806;-69
2022/01/24 11:17:59;;;;;;;;;39.00;32.00;;;;;7.23;58.62;102740.69;4920376;28;45333;-69
2022/01/24 11:20:33;;;;;;;;;36.00;32.75;;;;;7.21;58.48;102731.81;4907948;28;45354;-69
2022/01/24 11:23:01;;;;;;;;;37.75;30.50;;;;;7.20;58.57;102717.63;4920707;28;46015;-71
2022/01/24 11:25:29;;;;;;;;;38.25;31.25;;;;;7.26;58.83;102726.56;4915796;28;45847;-71
2022/01/24 11:27:55;;;;;;;;;41.50;37.75;;;;;7.33;58.61;102725.75;4923584;28;45535;-69
2022/01/24 11:30:25;;;;;;;;;40.50;33.25;;;;;7.37;58.72;102728.47;4922683;28;45341;-70
2022/01/24 11:32:54;;;;;;;;;40.75;35.75;;;;;7.42;59.21;102732.09;4922812;28;45523;-69
2022/01/24 11:35:33;;;;;;;;;46.75;38.50;;;;;7.48;58.70;102730.38;4892955;28;45447;-69
2022/01/24 11:37:59;;;;;;;;;39.75;32.50;;;;;7.50;59.10;102723.31;4923297;28;45426;-69
2022/01/24 11:40:26;;;;;;;;;48.75;38.50;;;;;7.60;58.69;102726.09;4919053;28;45445;-71
2022/01/24 11:42:52;;;;;;;;;44.50;37.75;;;;;7.60;58.22;102719.88;4923630;28;47048;-71
2022/01/24 11:45:56;;;;;;;;;48.25;39.00;;;;;7.67;59.36;102723.50;4922079;28;45696;-71
2022/01/24 11:48:22;;;;;;;;;45.25;38.00;;;;;7.70;58.29;102712.91;4920689;28;45638;-72
2022/01/24 11:51:05;;;;;;;;;44.75;36.00;;;;;7.78;58.37;102721.84;4923296;28;45573;-73
2022/01/24 11:53:33;;;;;;;;;43.00;36.25;;;;;7.77;58.50;102715.66;4910418;28;46946;-72
2022/01/24 11:56:21;;;;;;;;;46.50;36.50;;;;;7.84;58.32;102715.75;4922613;28;45393;-74
2022/01/24 11:58:48;;;;;;;;;41.25;32.00;;;;;7.84;58.31;102711.28;4917004;28;45402;-74
2022/01/24 12:01:37;;;;;;;;;48.75;39.25;;;;;7.85;57.90;102709.53;4887407;28;45673;-74
2022/01/24 12:04:03;;;;;;;;;43.75;36.00;;;;;7.86;58.35;102716.63;4920128;28;46143;-75
2022/01/24 12:06:28;;;;;;;;;55.00;39.50;;;;;7.85;57.83;102712.19;4922574;28;45236;-76
2022/01/24 12:09:03;;;;;;;;;37.00;34.75;;;;;7.82;58.49;102698.84;4922792;28;45309;-76
2022/01/24 12:11:33;;;;;;;;;32.25;29.50;;;;;7.84;58.05;102702.44;4923113;28;45395;-76
2022/01/24 12:14:12;;;;;;;;;42.25;37.50;;;;;7.89;57.84;102700.72;4910850;28;46159;-76
2022/01/24 12:16:41;;;;;;;;;42.00;36.75;;;;;7.95;58.07;102712.31;4922281;28;45466;-78
2022/01/24 12:19:07;;;;;;;;;35.25;34.50;;;;;7.93;57.62;102691.88;4923135;28;45411;-76
2022/01/24 12:21:41;;;;;;;;;35.75;32.25;;;;;8.03;58.20;102708.81;4922913;28;45398;-77
2022/01/24 12:24:11;;;;;;;;;39.75;34.50;;;;;8.07;57.90;102700.91;4908230;28;46224;-76
2022/01/24 12:26:48;;;;;;;;;37.75;30.50;;;;;8.12;58.02;102701.81;4916881;28;47019;-79
2022/01/24 12:29:25;;;;;;;;;44.00;37.00;;;;;8.15;57.69;102692.97;4919202;28;45419;-79
2022/01/24 12:31:53;;;;;;;;;42.00;36.25;;;;;8.16;57.52;102692.09;4914335;28;45466;-78
2022/01/24 12:34:38;;;;;;;;;46.50;39.25;;;;;8.12;57.65;102685.88;4918856;28;46217;-76
2022/01/24 12:37:07;;;;;;;;;39.50;37.00;;;;;8.25;57.58;102705.50;4883257;28;46058;-76
2022/01/24 12:39:43;;;;;;;;;40.25;34.00;;;;;8.21;57.73;102687.72;4872476;29;45634;-76
2022/01/24 12:42:19;;;;;;;;;45.00;37.50;;;;;8.27;57.26;102695.75;4881141;29;45758;-75
2022/01/24 12:47:15;;;;;;;;;42.50;34.75;;;;;8.35;57.50;102702.03;4879411;29;45483;-72
2022/01/24 12:49:42;;;;;;;;;41.00;37.50;;;;;8.39;57.01;102696.75;4881205;29;45601;-72
2022/01/24 12:52:10;;;;;;;;;38.50;36.75;;;;;8.42;56.82;102694.06;4880460;29;45384;-71
2022/01/24 12:54:39;;;;;;;;;39.75;32.50;;;;;8.41;57.39;102687.88;4895460;29;47239;-68
2022/01/24 12:57:07;;;;;;;;;40.50;36.50;;;;;8.47;57.29;102684.38;4869392;29;46357;-71
2022/01/24 12:59:34;;;;;;;;;37.00;33.50;;;;;8.53;56.85;102685.31;4881127;29;45464;-67
2022/01/24 13:02:02;;;;;;;;;38.75;31.75;;;;;8.53;57.00;102685.31;4880900;29;45818;-67
2022/01/24 13:04:39;;;;;;;;;38.50;33.00;;;;;8.51;56.25;102687.09;4876443;29;47114;-67
2022/01/24 13:07:09;;;;;;;;;34.25;31.00;;;;;8.56;56.37;102689.78;4875510;29;45564;-68